MST,Max TemperatureF,Mean TemperatureF,Min TemperatureF,Max Dew PointF,MeanDew PointF,Min DewpointF,Max Humidity, Mean Humidity, Min Humidity, Max Sea Level PressureIn, Mean Sea Level PressureIn, Min Sea Level PressureIn, Max VisibilityMiles, Mean VisibilityMiles, Min VisibilityMiles, Max Wind SpeedMPH, Mean Wind SpeedMPH, Max Gust SpeedMPH,PrecipitationIn, CloudCover, Events, WindDirDegrees
2013-11-1,89,80,71,75,70,66,88,74,55,29.88,29.83,29.75,15,12,10,15,6,,0.00,6,,309
2013-11-2,90,80,71,77,71,68,88,76,57,29.86,29.82,29.75,14,11,10,14,6,,0.00,4,,321
2013-11-3,88,80,73,78,72,68,89,81,61,29.87,29.78,29.69,15,8,1,110,11,34,0.04,7,Rain-Thunderstorm,127
2013-11-4,87,79,71,74,70,66,89,77,52,29.88,29.81,29.74,15,10,2,17,11,30,0.02,5,Rain,258
2013-11-5,87,78,69,74,68,64,88,74,55,29.93,29.87,29.81,15,12,10,14,8,,0.12,2,,333
2013-11-6,87,78,69,75,69,64,94,77,49,29.92,29.86,29.79,12,10,6,16,7,,0.00,5,,307
2013-11-7,89,81,73,75,71,68,88,78,50,29.97,29.91,29.86,14,11,6,9,5,,0.02,8,Rain-Thunderstorm,329
2013-11-8,84,76,68,72,67,59,91,79,48,30.01,29.92,29.85,15,10,6,12,7,,0.16,6,Rain-Thunderstorm,345
2013-11-9,86,76,66,73,66,63,92,74,49,29.94,29.89,29.84,15,12,10,10,7,,0.00,0,,334
2013-11-10,87,76,66,73,67,52,92,73,48,29.92,29.87,29.82,15,12,10,12,7,,0.00,4,,338
2013-11-11,86,78,69,75,68,64,88,74,56,29.92,29.86,29.80,15,11,10,10,6,,0.00,1,,300
2013-11-12,88,78,68,75,70,64,89,78,56,29.95,29.87,29.80,12,10,6,10,5,,0.00,1,,274
2013-11-13,93,81,69,74,66,61,94,68,34,30.05,29.86,29.78,14,9,0,10,5,,0.00,1,Fog,357
2013-11-14,87,78,68,74,65,62,88,71,48,29.94,29.88,29.82,15,12,10,10,7,,0.00,4,,11
2013-11-15,85,76,66,72,67,63,88,76,55,29.90,29.85,29.79,15,11,10,8,6,,0.00,7,,73
2013-11-16,85,77,69,70,66,64,88,73,49,29.91,29.85,29.80,15,11,8,10,7,,0.00,7,,70
2013-11-17,87,76,66,72,66,63,94,71,48,29.98,29.90,29.84,15,12,10,12,7,,0.00,1,,331
2013-11-18,86,76,66,72,66,63,88,73,51,29.95,29.89,29.84,15,13,10,18,7,,0.00,0,,302
2013-11-19,84,73,62,71,65,59,89,77,58,29.88,29.83,29.77,15,11,5,12,6,,0.00,1,,311
2013-11-20,85,76,66,69,64,61,88,75,51,29.90,29.85,29.80,15,11,8,13,6,,0.00,1,,325
2013-11-21,85,76,66,71,65,63,88,73,47,29.95,29.89,29.64,15,12,10,75,9,,0.00,1,,320
2013-11-22,87,76,64,72,65,61,88,70,51,29.97,29.91,29.87,15,12,8,14,5,,0.00,1,,323
2013-11-23,85,76,66,72,66,61,94,73,55,29.97,29.91,29.80,15,11,3,14,7,,0.00,3,,319
2013-11-24,85,74,64,72,65,61,88,71,54,29.96,29.91,29.86,15,12,10,77,9,,0.00,4,,302
2013-11-25,84,74,62,65,60,48,88,64,43,29.98,29.91,29.71,15,12,10,16,8,,0.00,4,,297
2013-11-26,84,68,51,65,55,46,88,62,38,29.98,29.90,29.82,15,13,10,12,7,,0.00,0,,339
2013-11-27,85,69,53,58,49,40,77,52,19,29.92,29.86,29.80,15,12,10,12,8,,0.00,2,,8
2013-11-28,87,74,60,71,60,52,88,68,40,29.99,29.94,29.89,15,12,10,9,7,,0.00,5,,354
2013-11-29,83,72,60,69,61,54,88,73,51,30.01,29.96,29.89,15,12,10,12,7,,0.00,5,,331
2013-11-30,83,72,60,73,62,55,88,74,53,30.00,29.95,29.86,15,12,8,9,5,,0.00,3,,346